createdAt,value
2018-06-15T00:00:28.869Z,17.44
2018-06-15T00:03:03.200Z,17.43
2018-06-15T00:05:32.907Z,17.47
2018-06-15T00:08:02.247Z,17.49
2018-06-15T00:10:31.484Z,17.51
2018-06-15T00:13:00.508Z,17.49
2018-06-15T00:15:29.548Z,17.44
2018-06-15T00:17:58.516Z,17.40
2018-06-15T00:20:27.553Z,17.34
2018-06-15T00:22:56.572Z,17.36
2018-06-15T00:25:25.604Z,17.37
2018-06-15T00:27:54.577Z,17.36
2018-06-15T00:30:23.603Z,17.33
2018-06-15T00:32:52.552Z,17.30
2018-06-15T00:35:21.682Z,17.30
2018-06-15T00:37:50.670Z,17.28
2018-06-15T00:40:19.865Z,17.25
2018-06-15T00:42:49.152Z,17.23
2018-06-15T00:45:18.496Z,17.27
2018-06-15T00:47:47.936Z,17.26
2018-06-15T00:50:17.257Z,17.25
2018-06-15T00:52:46.672Z,17.29
2018-06-15T00:55:16.064Z,17.31
2018-06-15T00:57:48.331Z,17.28
2018-06-15T01:00:17.967Z,17.26
2018-06-15T01:02:47.421Z,17.22
2018-06-15T01:05:16.668Z,17.25
2018-06-15T01:07:45.944Z,17.29
2018-06-15T01:10:15.164Z,17.34
2018-06-15T01:12:44.398Z,17.34
2018-06-15T01:15:13.623Z,17.35
2018-06-15T01:17:42.831Z,17.34
2018-06-15T01:20:12.058Z,17.28
2018-06-15T01:22:41.292Z,17.20
2018-06-15T01:25:10.495Z,17.20
2018-06-15T01:27:39.724Z,17.22
2018-06-15T01:30:08.951Z,17.18
2018-06-15T01:32:38.320Z,17.21
2018-06-15T01:35:07.605Z,17.22
2018-06-15T01:37:36.807Z,17.18
2018-06-15T01:40:06.048Z,17.17
2018-06-15T01:42:35.271Z,17.14
2018-06-15T01:45:04.317Z,17.17
2018-06-15T01:47:33.613Z,17.12
2018-06-15T01:50:02.830Z,17.09
2018-06-15T01:52:32.212Z,17.07
2018-06-15T01:55:01.641Z,17.06
2018-06-15T01:57:31.107Z,17.00
2018-06-15T02:00:00.427Z,17.02
2018-06-15T02:02:29.683Z,17.04
2018-06-15T02:04:58.979Z,17.03
2018-06-15T02:07:28.200Z,17.00
2018-06-15T02:09:57.552Z,16.99
2018-06-15T02:12:26.922Z,17.03
2018-06-15T02:14:56.243Z,17.00
2018-06-15T02:17:25.617Z,17.03
2018-06-15T02:19:54.892Z,17.03
2018-06-15T02:22:24.163Z,16.93
2018-06-15T02:24:53.555Z,16.94
2018-06-15T02:27:22.857Z,16.96
2018-06-15T02:29:52.185Z,16.91
2018-06-15T02:32:21.560Z,16.82
2018-06-15T02:34:50.860Z,16.81
2018-06-15T02:37:20.250Z,16.83
2018-06-15T02:39:49.590Z,16.81
2018-06-15T02:42:18.842Z,16.77
2018-06-15T02:44:48.086Z,16.80
2018-06-15T02:47:17.292Z,16.80
2018-06-15T02:49:46.277Z,16.80
2018-06-15T02:52:15.836Z,16.81
2018-06-15T02:54:45.132Z,16.84
2018-06-15T02:57:14.588Z,16.84
2018-06-15T02:59:43.808Z,16.89
2018-06-15T03:02:13.098Z,16.82
2018-06-15T03:04:42.448Z,16.82
2018-06-15T03:07:11.634Z,16.87
2018-06-15T03:09:41.088Z,16.91
2018-06-15T03:12:10.553Z,16.74
2018-06-15T03:14:39.752Z,16.89
2018-06-15T03:17:09.045Z,16.85
2018-06-15T03:19:38.380Z,16.83
2018-06-15T03:22:07.766Z,16.85
2018-06-15T03:24:37.047Z,16.81
2018-06-15T03:27:06.346Z,16.76
2018-06-15T03:29:35.589Z,16.73
2018-06-15T03:32:04.882Z,16.69
2018-06-15T03:34:34.159Z,16.71
2018-06-15T03:37:03.737Z,16.75
2018-06-15T03:39:33.000Z,16.80
2018-06-15T03:42:02.544Z,16.86
2018-06-15T03:44:31.807Z,16.93
2018-06-15T03:47:01.096Z,17.05
2018-06-15T03:49:30.396Z,17.12
2018-06-15T03:51:59.613Z,17.16
2018-06-15T03:54:28.651Z,17.25
2018-06-15T03:56:58.029Z,17.31
2018-06-15T03:59:27.277Z,17.36
2018-06-15T04:01:56.574Z,17.41
2018-06-15T04:04:25.885Z,17.42
2018-06-15T04:06:55.091Z,17.48
2018-06-15T04:09:24.428Z,17.54
2018-06-15T04:11:53.583Z,17.58
2018-06-15T04:14:22.885Z,17.58
2018-06-15T04:16:52.200Z,17.55
2018-06-15T04:19:21.533Z,17.56
2018-06-15T04:21:50.800Z,17.57
2018-06-15T04:24:20.030Z,17.59
2018-06-15T04:26:49.245Z,17.68
2018-06-15T04:29:18.629Z,17.76
2018-06-15T04:31:47.984Z,17.79
2018-06-15T04:34:17.268Z,17.83
2018-06-15T04:36:46.542Z,17.81
2018-06-15T04:39:15.861Z,17.83
2018-06-15T04:41:45.252Z,18.02
2018-06-15T04:44:14.504Z,18.12
2018-06-15T04:46:43.810Z,18.20
2018-06-15T04:49:13.125Z,18.31
2018-06-15T04:51:42.406Z,18.37
2018-06-15T04:54:11.605Z,18.55
2018-06-15T04:56:40.967Z,18.77
2018-06-15T04:59:09.920Z,18.97
2018-06-15T05:01:39.245Z,19.12
2018-06-15T05:04:12.513Z,19.27
2018-06-15T05:06:41.894Z,19.42
2018-06-15T05:09:11.790Z,19.52
2018-06-15T05:11:41.413Z,19.65
2018-06-15T05:14:10.674Z,19.80
2018-06-15T05:16:39.644Z,20.02
2018-06-15T05:19:08.953Z,20.13
2018-06-15T05:21:38.275Z,20.15
2018-06-15T05:24:07.662Z,20.26
2018-06-15T05:26:37.052Z,20.47
2018-06-15T05:29:06.477Z,20.66
2018-06-15T05:31:35.828Z,20.91
2018-06-15T05:34:04.879Z,21.20
2018-06-15T05:36:34.147Z,21.43
2018-06-15T05:39:03.765Z,21.61
2018-06-15T05:41:33.041Z,21.70
2018-06-15T05:44:02.512Z,21.83
2018-06-15T05:46:31.735Z,21.93
2018-06-15T05:49:01.154Z,22.09
2018-06-15T05:51:30.525Z,22.33
2018-06-15T05:53:59.825Z,22.51
2018-06-15T05:56:29.182Z,22.65
2018-06-15T05:58:59.189Z,22.70
2018-06-15T06:01:28.447Z,22.82
2018-06-15T06:03:57.749Z,23.02
2018-06-15T06:06:26.921Z,23.17
2018-06-15T06:08:56.206Z,23.13
2018-06-15T06:11:25.508Z,23.16
2018-06-15T06:13:54.846Z,23.17
2018-06-15T06:16:24.143Z,23.29
2018-06-15T06:18:53.477Z,23.37
2018-06-15T06:21:22.656Z,23.28
2018-06-15T06:23:51.887Z,23.26
2018-06-15T06:26:21.209Z,23.32
2018-06-15T06:28:50.514Z,23.51
2018-06-15T06:31:19.829Z,23.55
2018-06-15T06:33:49.384Z,23.55
2018-06-15T06:36:18.348Z,23.58
2018-06-15T06:38:47.308Z,23.51
2018-06-15T06:41:16.844Z,23.54
2018-06-15T06:43:46.992Z,23.63
2018-06-15T06:46:16.197Z,23.51
2018-06-15T06:48:45.478Z,23.60
2018-06-15T06:51:14.752Z,23.69
2018-06-15T06:53:43.972Z,23.77
2018-06-15T06:56:12.983Z,23.80
2018-06-15T06:58:42.217Z,23.95
2018-06-15T07:01:11.494Z,24.12
2018-06-15T07:03:40.859Z,24.24
2018-06-15T07:06:10.188Z,24.34
2018-06-15T07:08:39.574Z,24.44
2018-06-15T07:11:09.000Z,24.35
2018-06-15T07:13:38.297Z,24.44
2018-06-15T07:16:07.492Z,24.67
2018-06-15T07:18:36.895Z,24.85
2018-06-15T07:21:06.138Z,25.07
2018-06-15T07:23:35.468Z,25.27
2018-06-15T07:26:05.020Z,25.36
2018-06-15T07:28:34.365Z,25.45
2018-06-15T07:31:03.572Z,25.54
2018-06-15T07:33:32.797Z,25.61
2018-06-15T07:36:02.009Z,25.70
2018-06-15T07:38:31.289Z,25.75
2018-06-15T07:41:00.492Z,25.78
2018-06-15T07:43:29.751Z,25.72
2018-06-15T07:45:59.142Z,26.02
2018-06-15T07:48:28.492Z,26.36
2018-06-15T07:50:57.653Z,26.46
2018-06-15T07:53:26.901Z,26.59
2018-06-15T07:55:56.222Z,26.69
2018-06-15T07:58:25.492Z,26.65
2018-06-15T08:00:54.620Z,26.64
2018-06-15T08:03:23.952Z,26.74
2018-06-15T08:05:53.268Z,26.75
2018-06-15T08:08:22.584Z,26.98
2018-06-15T08:10:51.902Z,27.15
2018-06-15T08:13:21.307Z,27.12
2018-06-15T08:15:50.373Z,27.08
2018-06-15T08:18:19.741Z,27.01
2018-06-15T08:20:49.101Z,27.13
2018-06-15T08:23:18.255Z,27.38
2018-06-15T08:25:47.444Z,27.39
2018-06-15T08:28:16.749Z,27.52
2018-06-15T08:30:45.908Z,27.66
2018-06-15T08:33:15.294Z,27.77
2018-06-15T08:35:44.637Z,27.94
2018-06-15T08:38:13.962Z,28.11
2018-06-15T08:40:43.288Z,28.09
2018-06-15T08:43:12.541Z,28.14
2018-06-15T08:45:41.836Z,28.11
2018-06-15T08:48:11.372Z,28.14
2018-06-15T08:50:40.876Z,28.29
2018-06-15T08:53:10.112Z,28.34
2018-06-15T08:55:39.585Z,28.42
2018-06-15T08:58:08.864Z,28.54
2018-06-15T09:00:38.157Z,28.68
2018-06-15T09:03:07.412Z,28.65
2018-06-15T09:05:36.518Z,28.72
2018-06-15T09:08:05.851Z,28.75
2018-06-15T09:10:35.085Z,28.85
2018-06-15T09:13:04.400Z,28.86
2018-06-15T09:15:33.547Z,28.90
2018-06-15T09:18:02.763Z,28.87
2018-06-15T09:20:31.740Z,28.91
2018-06-15T09:23:01.159Z,29.20
2018-06-15T09:25:30.581Z,29.39
2018-06-15T09:28:00.001Z,29.16
2018-06-15T09:30:29.376Z,29.28
2018-06-15T09:32:58.585Z,29.59
2018-06-15T09:35:27.828Z,29.82
2018-06-15T09:37:57.126Z,29.79
2018-06-15T09:40:26.415Z,29.74
2018-06-15T09:42:55.753Z,29.59
2018-06-15T09:45:25.018Z,29.63
2018-06-15T09:47:54.345Z,29.73
2018-06-15T09:50:23.656Z,29.98
2018-06-15T09:52:52.705Z,29.92
2018-06-15T09:55:21.992Z,29.69
2018-06-15T09:57:51.307Z,29.82
2018-06-15T10:00:25.753Z,29.73
2018-06-15T10:02:55.004Z,29.89
2018-06-15T10:05:24.325Z,30.21
2018-06-15T10:07:54.052Z,30.26
2018-06-15T10:10:23.278Z,30.21
2018-06-15T10:12:52.496Z,30.52
2018-06-15T10:15:21.863Z,30.70
2018-06-15T10:17:51.239Z,30.59
2018-06-15T10:20:20.524Z,30.61
2018-06-15T10:22:49.915Z,30.38
2018-06-15T10:25:19.314Z,30.12
2018-06-15T10:27:48.339Z,29.96
2018-06-15T10:30:17.483Z,29.88
2018-06-15T10:32:46.891Z,29.67
2018-06-15T10:35:16.042Z,29.51
2018-06-15T10:37:45.302Z,29.41
2018-06-15T10:40:14.717Z,29.24
2018-06-15T10:42:43.745Z,29.12
2018-06-15T10:45:12.737Z,28.98
2018-06-15T10:47:41.708Z,28.76
2018-06-15T10:50:10.819Z,28.60
2018-06-15T10:52:39.799Z,28.37
2018-06-15T10:55:08.993Z,28.22
2018-06-15T10:57:38.022Z,28.08
2018-06-15T11:00:07.039Z,27.94
2018-06-15T11:02:36.068Z,27.86
2018-06-15T11:05:05.226Z,27.69
2018-06-15T11:07:34.273Z,27.59
2018-06-15T11:10:03.264Z,27.50
2018-06-15T11:12:32.734Z,27.25
2018-06-15T11:15:01.684Z,27.16
2018-06-15T11:17:30.644Z,27.10
2018-06-15T11:19:59.605Z,27.07
2018-06-15T11:22:28.609Z,27.00
2018-06-15T11:24:57.717Z,26.91
2018-06-15T11:27:26.725Z,26.83
2018-06-15T11:29:55.773Z,26.75
2018-06-15T11:32:24.797Z,26.66
2018-06-15T11:34:53.748Z,26.62
2018-06-15T11:37:22.716Z,26.55
2018-06-15T11:39:51.765Z,26.46
2018-06-15T11:42:20.737Z,26.40
2018-06-15T11:44:49.691Z,26.32
2018-06-15T11:47:18.692Z,26.19
2018-06-15T11:49:47.725Z,26.05
2018-06-15T11:52:16.707Z,25.77
2018-06-15T11:54:45.736Z,25.47
2018-06-15T11:57:14.775Z,25.18
2018-06-15T11:59:44.140Z,24.91
2018-06-15T12:02:13.444Z,24.74
2018-06-15T12:04:42.625Z,24.65
2018-06-15T12:07:11.992Z,24.54
2018-06-15T12:09:40.950Z,24.48
2018-06-15T12:12:10.254Z,24.41
2018-06-15T12:14:39.325Z,24.35
2018-06-15T12:17:08.369Z,24.35
2018-06-15T12:19:37.343Z,24.30
2018-06-15T12:22:06.443Z,24.18
2018-06-15T12:24:35.425Z,24.16
2018-06-15T12:27:04.471Z,24.08
2018-06-15T12:29:33.493Z,23.97
2018-06-15T12:32:02.464Z,23.85
2018-06-15T12:34:31.597Z,23.80
2018-06-15T12:37:00.564Z,23.79
2018-06-15T12:39:29.547Z,23.77
2018-06-15T12:41:58.516Z,23.74
2018-06-15T12:44:27.661Z,23.76
2018-06-15T12:46:56.692Z,23.78
2018-06-15T12:49:25.751Z,23.81
2018-06-15T12:51:54.728Z,23.72
2018-06-15T12:54:23.747Z,23.59
2018-06-15T12:56:52.732Z,23.43
2018-06-15T12:59:21.775Z,23.18
2018-06-15T13:01:50.775Z,23.03
2018-06-15T13:04:20.166Z,22.90
2018-06-15T13:06:49.481Z,22.82
2018-06-15T13:09:18.544Z,22.74
2018-06-15T13:11:47.621Z,22.80
2018-06-15T13:14:16.689Z,22.85
2018-06-15T13:16:45.785Z,22.86
2018-06-15T13:19:14.805Z,22.77
2018-06-15T13:21:43.791Z,22.68
2018-06-15T13:24:12.767Z,22.63
2018-06-15T13:26:41.812Z,22.61
2018-06-15T13:29:11.120Z,22.61
2018-06-15T13:31:40.451Z,22.59
2018-06-15T13:34:09.981Z,22.61
2018-06-15T13:36:39.216Z,22.66
2018-06-15T13:39:11.599Z,22.70
2018-06-15T13:41:40.861Z,22.68
2018-06-15T13:44:10.236Z,22.71
2018-06-15T13:46:39.417Z,22.76
2018-06-15T13:49:08.717Z,22.85
2018-06-15T13:51:38.061Z,22.92
2018-06-15T13:54:07.362Z,23.02
2018-06-15T13:56:36.760Z,23.19
2018-06-15T13:59:06.120Z,23.35
2018-06-15T14:01:35.349Z,23.53
2018-06-15T14:04:04.875Z,23.73
2018-06-15T14:06:34.094Z,23.93
2018-06-15T14:09:03.484Z,24.04
2018-06-15T14:11:32.901Z,24.18
2018-06-15T14:14:02.280Z,24.25
2018-06-15T14:16:31.558Z,24.34
2018-06-15T14:19:01.026Z,24.27
2018-06-15T14:21:30.360Z,24.27
2018-06-15T14:23:59.393Z,24.32
2018-06-15T14:26:28.512Z,24.40
2018-06-15T14:28:57.655Z,24.46
2018-06-15T14:31:26.753Z,24.44
2018-06-15T14:33:55.961Z,24.41
2018-06-15T14:36:25.232Z,24.36
2018-06-15T14:38:54.312Z,24.24
2018-06-15T14:41:23.531Z,24.17
2018-06-15T14:43:52.756Z,24.13
2018-06-15T14:46:22.136Z,23.88
2018-06-15T14:48:51.514Z,23.71
2018-06-15T14:51:20.742Z,23.64
2018-06-15T14:53:50.055Z,23.58
2018-06-15T14:56:19.363Z,23.48
2018-06-15T14:58:48.600Z,23.35
2018-06-15T15:01:17.829Z,23.13
2018-06-15T15:03:47.204Z,22.93
2018-06-15T15:06:16.461Z,22.77
2018-06-15T15:08:45.708Z,22.67
2018-06-15T15:11:15.015Z,22.53
2018-06-15T15:13:44.344Z,22.27
2018-06-15T15:16:13.713Z,21.93
2018-06-15T15:18:43.092Z,21.63
2018-06-15T15:21:12.424Z,21.31
2018-06-15T15:23:41.806Z,21.01
2018-06-15T15:26:11.245Z,20.60
2018-06-15T15:28:40.565Z,20.13
2018-06-15T15:31:09.816Z,19.91
2018-06-15T15:33:39.044Z,19.71
2018-06-15T15:36:08.240Z,19.62
2018-06-15T15:38:37.649Z,19.62
2018-06-15T15:41:06.903Z,19.70
2018-06-15T15:43:36.073Z,19.70
2018-06-15T15:46:05.268Z,19.75
2018-06-15T15:48:34.576Z,19.81
2018-06-15T15:51:03.892Z,19.92
2018-06-15T15:53:33.316Z,20.01
2018-06-15T15:56:02.548Z,20.07
2018-06-15T15:58:31.763Z,20.08
2018-06-15T16:01:00.808Z,20.11
2018-06-15T16:03:29.824Z,20.07
2018-06-15T16:05:59.048Z,19.95
2018-06-15T16:08:28.177Z,19.92
2018-06-15T16:10:57.329Z,19.97
2018-06-15T16:13:26.528Z,20.00
2018-06-15T16:15:55.669Z,19.86
2018-06-15T16:18:24.944Z,19.68
2018-06-15T16:20:54.284Z,19.61
2018-06-15T16:23:23.495Z,19.52
2018-06-15T16:25:52.844Z,19.51
2018-06-15T16:28:22.139Z,19.35
2018-06-15T16:30:51.446Z,19.13
2018-06-15T16:33:20.407Z,19.08
2018-06-15T16:35:49.392Z,19.10
2018-06-15T16:38:18.532Z,19.20
2018-06-15T16:40:47.540Z,19.25
2018-06-15T16:43:16.740Z,19.34
2018-06-15T16:45:46.016Z,19.41
2018-06-15T16:48:15.236Z,19.38
2018-06-15T16:50:44.536Z,19.36
2018-06-15T16:53:14.056Z,19.34
2018-06-15T16:55:43.256Z,19.35
2018-06-15T16:58:12.451Z,19.36
2018-06-15T17:00:41.732Z,19.29
2018-06-15T17:03:11.036Z,19.29
2018-06-15T17:05:40.313Z,19.23
2018-06-15T17:08:09.558Z,19.23
2018-06-15T17:10:38.765Z,19.24
2018-06-15T17:13:08.073Z,19.10
2018-06-15T17:15:37.407Z,19.02
2018-06-15T17:18:07.155Z,18.95
2018-06-15T17:20:36.369Z,18.90
2018-06-15T17:23:05.576Z,18.88
2018-06-15T17:25:34.809Z,18.95
2018-06-15T17:28:04.016Z,18.91
2018-06-15T17:30:33.256Z,18.85
2018-06-15T17:33:02.573Z,18.86
2018-06-15T17:35:31.800Z,18.85
2018-06-15T17:38:00.895Z,18.81
2018-06-15T17:40:30.156Z,18.87
2018-06-15T17:42:59.360Z,18.80
2018-06-15T17:45:28.661Z,18.76
2018-06-15T17:47:57.987Z,18.71
2018-06-15T17:50:27.368Z,18.66
2018-06-15T17:52:56.551Z,18.62
2018-06-15T17:55:25.808Z,18.57
2018-06-15T17:57:55.023Z,18.58
2018-06-15T18:00:24.194Z,18.59
2018-06-15T18:02:53.497Z,18.65
2018-06-15T18:05:22.701Z,18.66
2018-06-15T18:07:52.200Z,18.70
2018-06-15T18:10:22.440Z,18.73
2018-06-15T18:12:51.668Z,18.68
2018-06-15T18:15:21.084Z,18.63
2018-06-15T18:17:50.421Z,18.53
2018-06-15T18:20:19.620Z,18.56
2018-06-15T18:22:48.816Z,18.57
2018-06-15T18:25:18.117Z,18.52
2018-06-15T18:27:47.296Z,18.58
2018-06-15T18:30:16.684Z,18.56
2018-06-15T18:32:46.028Z,18.53
2018-06-15T18:35:15.438Z,18.49
2018-06-15T18:37:44.688Z,18.41
2018-06-15T18:40:13.935Z,18.36
2018-06-15T18:42:43.033Z,18.38
2018-06-15T18:45:12.464Z,18.45
2018-06-15T18:47:42.288Z,18.44
2018-06-15T18:50:11.529Z,18.49
2018-06-15T18:52:40.734Z,18.48
2018-06-15T18:55:10.085Z,18.48
2018-06-15T18:57:39.067Z,18.39
2018-06-15T19:00:08.107Z,18.33
2018-06-15T19:02:37.389Z,18.38
2018-06-15T19:05:06.821Z,18.33
2018-06-15T19:07:35.847Z,18.32
2018-06-15T19:10:05.316Z,18.38
2018-06-15T19:12:34.328Z,18.33
2018-06-15T19:15:04.028Z,18.27
2018-06-15T19:17:33.222Z,18.19
2018-06-15T19:20:02.651Z,18.18
2018-06-15T19:22:31.881Z,18.08
2018-06-15T19:25:01.332Z,18.02
2018-06-15T19:27:30.564Z,18.00
2018-06-15T19:29:59.856Z,18.02
2018-06-15T19:32:29.136Z,17.99
2018-06-15T19:34:58.393Z,17.91
2018-06-15T19:37:27.741Z,17.92
2018-06-15T19:39:57.050Z,17.91
2018-06-15T19:42:26.316Z,17.94
2018-06-15T19:44:55.534Z,17.87
2018-06-15T19:47:24.702Z,17.83
2018-06-15T19:49:54.129Z,17.77
2018-06-15T19:52:23.295Z,17.75
2018-06-15T19:54:52.841Z,17.73
2018-06-15T19:57:22.111Z,17.76
2018-06-15T19:59:51.462Z,17.74
2018-06-15T20:02:20.787Z,17.74
2018-06-15T20:04:50.184Z,17.65
2018-06-15T20:07:19.592Z,17.60
2018-06-15T20:09:48.964Z,17.60
2018-06-15T20:12:18.300Z,17.58
2018-06-15T20:14:47.713Z,17.58
2018-06-15T20:17:17.152Z,17.61
2018-06-15T20:19:46.518Z,17.61
2018-06-15T20:22:16.042Z,17.55
2018-06-15T20:24:45.411Z,17.47
2018-06-15T20:27:14.797Z,17.36
2018-06-15T20:29:44.176Z,17.33
2018-06-15T20:32:13.544Z,17.34
2018-06-15T20:34:42.632Z,17.34
2018-06-15T20:37:11.831Z,17.29
2018-06-15T20:39:41.165Z,17.36
2018-06-15T20:42:10.481Z,17.36
2018-06-15T20:44:39.816Z,17.33
2018-06-15T20:47:09.006Z,17.27
2018-06-15T20:49:38.085Z,17.26
2018-06-15T20:52:07.177Z,17.32
2018-06-15T20:54:36.261Z,17.30
2018-06-15T20:57:05.426Z,17.34
2018-06-15T20:59:34.453Z,17.33
2018-06-15T21:02:03.428Z,17.38
2018-06-15T21:04:32.396Z,17.44
2018-06-15T21:07:01.399Z,17.45
2018-06-15T21:09:30.373Z,17.47
2018-06-15T21:11:59.369Z,17.43
2018-06-15T21:14:28.399Z,17.42
2018-06-15T21:16:57.399Z,17.38
2018-06-15T21:19:26.446Z,17.27
2018-06-15T21:21:55.491Z,17.20
2018-06-15T21:24:24.455Z,17.26
2018-06-15T21:26:53.528Z,17.18
2018-06-15T21:29:22.567Z,17.17
2018-06-15T21:31:51.548Z,17.24
2018-06-15T21:34:20.592Z,17.22
2018-06-15T21:36:49.738Z,17.21
2018-06-15T21:39:19.086Z,17.19
2018-06-15T21:41:48.053Z,17.17
2018-06-15T21:44:17.516Z,17.19
2018-06-15T21:46:46.872Z,17.15
2018-06-15T21:49:16.200Z,17.10
2018-06-15T21:51:45.535Z,17.06
2018-06-15T21:54:14.963Z,17.01
2018-06-15T21:56:44.269Z,17.02
2018-06-15T21:59:13.551Z,17.08
2018-06-15T22:01:42.853Z,17.06
2018-06-15T22:04:12.258Z,17.03
2018-06-15T22:06:41.743Z,17.04
2018-06-15T22:09:11.108Z,17.00
2018-06-15T22:11:40.252Z,17.03
2018-06-15T22:14:09.552Z,16.99
2018-06-15T22:16:43.769Z,16.94
2018-06-15T22:19:13.125Z,16.90
2018-06-15T22:21:42.402Z,16.88
2018-06-15T22:24:11.892Z,16.88
2018-06-15T22:26:41.043Z,16.85
2018-06-15T22:29:10.403Z,16.80
2018-06-15T22:31:39.417Z,16.80
2018-06-15T22:34:08.751Z,16.77
2018-06-15T22:36:38.163Z,16.77
2018-06-15T22:39:13.740Z,16.78
2018-06-15T22:41:43.351Z,16.73
2018-06-15T22:44:13.255Z,16.69
2018-06-15T22:46:42.940Z,16.71
2018-06-15T22:49:12.821Z,16.72
2018-06-15T22:51:42.403Z,16.77
2018-06-15T22:54:11.600Z,16.80
2018-06-15T22:56:40.803Z,16.74
2018-06-15T22:59:10.045Z,16.67
2018-06-15T23:01:39.256Z,16.63
2018-06-15T23:04:08.644Z,16.69
2018-06-15T23:06:37.896Z,16.64
2018-06-15T23:09:09.295Z,16.59
2018-06-15T23:11:38.610Z,16.61
2018-06-15T23:14:07.863Z,16.57
2018-06-15T23:16:37.058Z,16.56
2018-06-15T23:19:06.381Z,16.54
2018-06-15T23:21:35.668Z,16.57
2018-06-15T23:24:04.841Z,16.59
2018-06-15T23:26:34.108Z,16.61
2018-06-15T23:29:03.315Z,16.67
2018-06-15T23:31:32.580Z,16.64
2018-06-15T23:34:01.768Z,16.65
2018-06-15T23:36:31.061Z,16.61
2018-06-15T23:39:00.385Z,16.62
2018-06-15T23:41:29.688Z,16.58
2018-06-15T23:43:58.863Z,16.62
2018-06-15T23:46:28.088Z,16.64
2018-06-15T23:48:57.323Z,16.73
2018-06-15T23:51:26.524Z,16.77
2018-06-15T23:53:55.720Z,16.74
2018-06-15T23:56:25.009Z,16.70
2018-06-15T23:58:54.328Z,16.69
